sensor_id;sensor_type;location;lat;lon;timestamp;P1;durP1;ratioP1;P2;durP2;ratioP2
92;SDS011;16232;48.800;9.002;2023-07-08T00:01:36;9.10;;;6.47;;
92;SDS011;16232;48.800;9.002;2023-07-08T00:04:03;9.83;;;6.77;;
92;SDS011;16232;48.800;9.002;2023-07-08T00:06:32;8.40;;;6.70;;
92;SDS011;16232;48.800;9.002;2023-07-08T00:09:00;8.43;;;6.23;;
92;SDS011;16232;48.800;9.002;2023-07-08T00:11:28;9.07;;;6.27;;
92;SDS011;16232;48.800;9.002;2023-07-08T00:13:55;8.97;;;6.13;;
92;SDS011;16232;48.800;9.002;2023-07-08T00:16:23;7.70;;;6.10;;
92;SDS011;16232;48.800;9.002;2023-07-08T00:18:52;9.70;;;6.47;;
92;SDS011;16232;48.800;9.002;2023-07-08T00:21:19;8.53;;;6.50;;
92;SDS011;16232;48.800;9.002;2023-07-08T00:23:47;9.30;;;6.63;;
92;SDS011;16232;48.800;9.002;2023-07-08T00:26:15;7.13;;;6.07;;
92;SDS011;16232;48.800;9.002;2023-07-08T00:28:44;8.80;;;6.53;;
92;SDS011;16232;48.800;9.002;2023-07-08T00:31:11;8.90;;;6.33;;
92;SDS011;16232;48.800;9.002;2023-07-08T00:33:39;8.30;;;6.13;;
92;SDS011;16232;48.800;9.002;2023-07-08T00:36:09;8.50;;;5.60;;
92;SDS011;16232;48.800;9.002;2023-07-08T00:38:38;9.93;;;6.83;;
92;SDS011;16232;48.800;9.002;2023-07-08T00:41:11;10.90;;;6.63;;
92;SDS011;16232;48.800;9.002;2023-07-08T00:43:40;10.57;;;6.93;;
92;SDS011;16232;48.800;9.002;2023-07-08T00:46:11;8.10;;;6.60;;
92;SDS011;16232;48.800;9.002;2023-07-08T00:48:40;9.07;;;5.87;;
92;SDS011;16232;48.800;9.002;2023-07-08T00:51:09;9.27;;;6.40;;
92;SDS011;16232;48.800;9.002;2023-07-08T00:53:37;9.27;;;6.67;;
92;SDS011;16232;48.800;9.002;2023-07-08T00:56:06;9.67;;;6.90;;
92;SDS011;16232;48.800;9.002;2023-07-08T00:58:37;8.33;;;6.53;;
92;SDS011;16232;48.800;9.002;2023-07-08T01:01:06;8.83;;;6.83;;
92;SDS011;16232;48.800;9.002;2023-07-08T01:03:36;7.23;;;5.73;;
92;SDS011;16232;48.800;9.002;2023-07-08T01:06:06;7.87;;;6.23;;
92;SDS011;16232;48.800;9.002;2023-07-08T01:08:35;7.03;;;6.03;;
92;SDS011;16232;48.800;9.002;2023-07-08T01:11:03;13.20;;;6.33;;
92;SDS011;16232;48.800;9.002;2023-07-08T01:13:32;9.33;;;6.67;;
92;SDS011;16232;48.800;9.002;2023-07-08T01:16:01;9.87;;;6.77;;
92;SDS011;16232;48.800;9.002;2023-07-08T01:18:29;8.30;;;5.93;;
92;SDS011;16232;48.800;9.002;2023-07-08T01:21:00;9.93;;;6.77;;
92;SDS011;16232;48.800;9.002;2023-07-08T01:23:31;8.57;;;6.30;;
92;SDS011;16232;48.800;9.002;2023-07-08T01:25:58;10.00;;;6.87;;
92;SDS011;16232;48.800;9.002;2023-07-08T01:28:26;10.10;;;6.90;;
92;SDS011;16232;48.800;9.002;2023-07-08T01:30:54;8.60;;;6.37;;
92;SDS011;16232;48.800;9.002;2023-07-08T01:33:22;9.63;;;6.27;;
92;SDS011;16232;48.800;9.002;2023-07-08T01:35:50;9.13;;;6.57;;
92;SDS011;16232;48.800;9.002;2023-07-08T01:38:21;9.50;;;6.43;;
92;SDS011;16232;48.800;9.002;2023-07-08T01:40:52;9.00;;;6.17;;
92;SDS011;16232;48.800;9.002;2023-07-08T01:43:19;9.90;;;6.97;;
92;SDS011;16232;48.800;9.002;2023-07-08T01:45:47;9.00;;;6.43;;
92;SDS011;16232;48.800;9.002;2023-07-08T01:48:16;8.50;;;6.63;;
92;SDS011;16232;48.800;9.002;2023-07-08T01:50:46;12.27;;;6.87;;
92;SDS011;16232;48.800;9.002;2023-07-08T01:53:16;7.80;;;6.23;;
92;SDS011;16232;48.800;9.002;2023-07-08T01:55:43;8.83;;;6.33;;
92;SDS011;16232;48.800;9.002;2023-07-08T01:58:12;8.57;;;6.60;;
92;SDS011;16232;48.800;9.002;2023-07-08T02:00:39;7.97;;;5.53;;
92;SDS011;16232;48.800;9.002;2023-07-08T02:03:08;9.40;;;6.30;;
92;SDS011;16232;48.800;9.002;2023-07-08T02:05:36;10.63;;;6.57;;
92;SDS011;16232;48.800;9.002;2023-07-08T02:08:04;10.60;;;6.93;;
92;SDS011;16232;48.800;9.002;2023-07-08T02:10:31;9.00;;;6.37;;
92;SDS011;16232;48.800;9.002;2023-07-08T02:12:58;8.13;;;6.10;;
92;SDS011;16232;48.800;9.002;2023-07-08T02:15:27;10.07;;;6.77;;
92;SDS011;16232;48.800;9.002;2023-07-08T02:17:55;8.80;;;6.60;;
92;SDS011;16232;48.800;9.002;2023-07-08T02:20:22;9.80;;;6.67;;
92;SDS011;16232;48.800;9.002;2023-07-08T02:22:50;8.00;;;6.30;;
92;SDS011;16232;48.800;9.002;2023-07-08T02:25:17;9.17;;;6.63;;
92;SDS011;16232;48.800;9.002;2023-07-08T02:27:45;9.80;;;7.03;;
92;SDS011;16232;48.800;9.002;2023-07-08T02:30:12;9.57;;;7.10;;
92;SDS011;16232;48.800;9.002;2023-07-08T02:32:41;8.43;;;6.43;;
92;SDS011;16232;48.800;9.002;2023-07-08T02:35:22;7.70;;;5.83;;
92;SDS011;16232;48.800;9.002;2023-07-08T02:37:49;9.17;;;7.33;;
92;SDS011;16232;48.800;9.002;2023-07-08T02:40:17;7.97;;;6.40;;
92;SDS011;16232;48.800;9.002;2023-07-08T02:42:44;9.53;;;5.73;;
92;SDS011;16232;48.800;9.002;2023-07-08T02:45:12;8.30;;;5.90;;
92;SDS011;16232;48.800;9.002;2023-07-08T02:47:41;10.03;;;6.53;;
92;SDS011;16232;48.800;9.002;2023-07-08T02:50:09;9.30;;;6.23;;
92;SDS011;16232;48.800;9.002;2023-07-08T02:52:36;10.37;;;7.27;;
92;SDS011;16232;48.800;9.002;2023-07-08T02:55:04;9.60;;;7.20;;
92;SDS011;16232;48.800;9.002;2023-07-08T02:57:31;10.93;;;6.83;;
92;SDS011;16232;48.800;9.002;2023-07-08T02:59:59;7.80;;;6.47;;
92;SDS011;16232;48.800;9.002;2023-07-08T03:02:28;8.53;;;6.83;;
92;SDS011;16232;48.800;9.002;2023-07-08T03:04:56;8.80;;;6.73;;
92;SDS011;16232;48.800;9.002;2023-07-08T03:07:26;9.20;;;6.53;;
92;SDS011;16232;48.800;9.002;2023-07-08T03:09:53;7.67;;;6.50;;
92;SDS011;16232;48.800;9.002;2023-07-08T03:12:20;8.80;;;6.97;;
92;SDS011;16232;48.800;9.002;2023-07-08T03:14:48;7.40;;;6.00;;
92;SDS011;16232;48.800;9.002;2023-07-08T03:17:15;10.57;;;6.77;;
92;SDS011;16232;48.800;9.002;2023-07-08T03:19:44;8.37;;;6.30;;
92;SDS011;16232;48.800;9.002;2023-07-08T03:22:13;9.10;;;6.60;;
92;SDS011;16232;48.800;9.002;2023-07-08T03:24:41;8.30;;;6.53;;
92;SDS011;16232;48.800;9.002;2023-07-08T03:27:11;8.90;;;6.70;;
92;SDS011;16232;48.800;9.002;2023-07-08T03:29:38;8.87;;;6.20;;
92;SDS011;16232;48.800;9.002;2023-07-08T03:32:07;8.13;;;6.40;;
92;SDS011;16232;48.800;9.002;2023-07-08T03:34:36;7.67;;;6.17;;
92;SDS011;16232;48.800;9.002;2023-07-08T03:37:03;9.33;;;6.90;;
92;SDS011;16232;48.800;9.002;2023-07-08T03:39:32;8.77;;;6.83;;
92;SDS011;16232;48.800;9.002;2023-07-08T03:42:00;8.93;;;6.87;;
92;SDS011;16232;48.800;9.002;2023-07-08T03:44:30;12.00;;;6.80;;
92;SDS011;16232;48.800;9.002;2023-07-08T03:46:57;8.47;;;6.90;;
92;SDS011;16232;48.800;9.002;2023-07-08T03:49:25;8.17;;;6.50;;
92;SDS011;16232;48.800;9.002;2023-07-08T03:51:53;10.03;;;7.40;;
92;SDS011;16232;48.800;9.002;2023-07-08T03:54:21;9.07;;;6.63;;
92;SDS011;16232;48.800;9.002;2023-07-08T03:56:50;9.23;;;7.27;;
92;SDS011;16232;48.800;9.002;2023-07-08T03:59:18;9.47;;;6.73;;
92;SDS011;16232;48.800;9.002;2023-07-08T04:01:45;8.60;;;6.60;;
92;SDS011;16232;48.800;9.002;2023-07-08T04:04:13;10.23;;;6.87;;
92;SDS011;16232;48.800;9.002;2023-07-08T04:06:41;9.67;;;6.33;;
92;SDS011;16232;48.800;9.002;2023-07-08T04:09:10;8.87;;;7.40;;
92;SDS011;16232;48.800;9.002;2023-07-08T04:11:38;9.33;;;7.13;;
92;SDS011;16232;48.800;9.002;2023-07-08T04:14:07;9.37;;;6.47;;
92;SDS011;16232;48.800;9.002;2023-07-08T04:16:41;9.93;;;6.90;;
92;SDS011;16232;48.800;9.002;2023-07-08T04:19:10;8.80;;;6.20;;
92;SDS011;16232;48.800;9.002;2023-07-08T04:21:43;9.10;;;7.57;;
92;SDS011;16232;48.800;9.002;2023-07-08T04:24:11;10.17;;;7.27;;
92;SDS011;16232;48.800;9.002;2023-07-08T04:26:39;10.83;;;7.23;;
92;SDS011;16232;48.800;9.002;2023-07-08T04:29:12;9.93;;;6.40;;
92;SDS011;16232;48.800;9.002;2023-07-08T04:31:39;9.37;;;6.97;;
92;SDS011;16232;48.800;9.002;2023-07-08T04:34:07;11.07;;;6.80;;
92;SDS011;16232;48.800;9.002;2023-07-08T04:36:35;9.33;;;6.33;;
92;SDS011;16232;48.800;9.002;2023-07-08T04:39:03;7.87;;;6.33;;
92;SDS011;16232;48.800;9.002;2023-07-08T04:41:31;8.53;;;6.90;;
92;SDS011;16232;48.800;9.002;2023-07-08T04:43:59;9.53;;;6.57;;
92;SDS011;16232;48.800;9.002;2023-07-08T04:46:31;7.67;;;6.27;;
92;SDS011;16232;48.800;9.002;2023-07-08T04:49:00;11.27;;;7.40;;
92;SDS011;16232;48.800;9.002;2023-07-08T04:51:28;9.50;;;6.87;;
92;SDS011;16232;48.800;9.002;2023-07-08T04:53:55;9.67;;;7.03;;
92;SDS011;16232;48.800;9.002;2023-07-08T04:56:24;9.30;;;6.53;;
92;SDS011;16232;48.800;9.002;2023-07-08T04:58:52;8.23;;;6.40;;
92;SDS011;16232;48.800;9.002;2023-07-08T05:01:19;9.13;;;6.67;;
92;SDS011;16232;48.800;9.002;2023-07-08T05:03:48;9.30;;;7.10;;
92;SDS011;16232;48.800;9.002;2023-07-08T05:06:16;9.37;;;6.50;;
92;SDS011;16232;48.800;9.002;2023-07-08T05:08:43;8.13;;;6.30;;
92;SDS011;16232;48.800;9.002;2023-07-08T05:11:10;10.37;;;6.30;;
92;SDS011;16232;48.800;9.002;2023-07-08T05:13:38;8.87;;;6.53;;
92;SDS011;16232;48.800;9.002;2023-07-08T05:16:05;9.60;;;6.67;;
92;SDS011;16232;48.800;9.002;2023-07-08T05:18:33;8.43;;;6.67;;
92;SDS011;16232;48.800;9.002;2023-07-08T05:21:02;7.87;;;6.37;;
92;SDS011;16232;48.800;9.002;2023-07-08T05:23:30;7.87;;;6.80;;
92;SDS011;16232;48.800;9.002;2023-07-08T05:25:58;7.37;;;6.27;;
92;SDS011;16232;48.800;9.002;2023-07-08T05:28:26;6.83;;;5.90;;
92;SDS011;16232;48.800;9.002;2023-07-08T05:30:54;7.53;;;6.10;;
92;SDS011;16232;48.800;9.002;2023-07-08T05:33:21;10.33;;;6.83;;
92;SDS011;16232;48.800;9.002;2023-07-08T05:35:49;8.30;;;6.43;;
92;SDS011;16232;48.800;9.002;2023-07-08T05:38:18;8.37;;;6.13;;
92;SDS011;16232;48.800;9.002;2023-07-08T05:40:47;8.50;;;6.93;;
92;SDS011;16232;48.800;9.002;2023-07-08T05:43:15;7.80;;;6.30;;
92;SDS011;16232;48.800;9.002;2023-07-08T05:45:43;8.70;;;6.50;;
92;SDS011;16232;48.800;9.002;2023-07-08T05:48:10;7.37;;;6.50;;
92;SDS011;16232;48.800;9.002;2023-07-08T05:50:38;8.37;;;6.20;;
92;SDS011;16232;48.800;9.002;2023-07-08T05:53:08;8.77;;;6.77;;
92;SDS011;16232;48.800;9.002;2023-07-08T05:55:37;8.17;;;6.17;;
92;SDS011;16232;48.800;9.002;2023-07-08T05:58:05;7.97;;;6.03;;
92;SDS011;16232;48.800;9.002;2023-07-08T06:00:32;7.57;;;6.43;;
92;SDS011;16232;48.800;9.002;2023-07-08T06:03:00;8.70;;;6.57;;
92;SDS011;16232;48.800;9.002;2023-07-08T06:05:27;8.03;;;6.20;;
92;SDS011;16232;48.800;9.002;2023-07-08T06:07:55;8.20;;;6.87;;
92;SDS011;16232;48.800;9.002;2023-07-08T06:10:22;7.60;;;6.33;;
92;SDS011;16232;48.800;9.002;2023-07-08T06:12:51;7.00;;;5.90;;
92;SDS011;16232;48.800;9.002;2023-07-08T06:15:19;7.10;;;6.10;;
92;SDS011;16232;48.800;9.002;2023-07-08T06:17:46;8.37;;;6.27;;
92;SDS011;16232;48.800;9.002;2023-07-08T06:20:14;9.23;;;6.37;;
92;SDS011;16232;48.800;9.002;2023-07-08T06:22:41;8.13;;;5.60;;
92;SDS011;16232;48.800;9.002;2023-07-08T06:25:08;7.67;;;6.87;;
92;SDS011;16232;48.800;9.002;2023-07-08T06:27:36;9.97;;;5.67;;
92;SDS011;16232;48.800;9.002;2023-07-08T06:30:06;6.80;;;5.60;;
92;SDS011;16232;48.800;9.002;2023-07-08T06:32:33;8.10;;;6.37;;
92;SDS011;16232;48.800;9.002;2023-07-08T06:35:01;8.47;;;6.07;;
92;SDS011;16232;48.800;9.002;2023-07-08T06:37:28;9.00;;;6.07;;
92;SDS011;16232;48.800;9.002;2023-07-08T06:39:56;7.83;;;5.80;;
92;SDS011;16232;48.800;9.002;2023-07-08T06:42:23;6.30;;;5.70;;
92;SDS011;16232;48.800;9.002;2023-07-08T06:44:51;7.43;;;5.07;;
92;SDS011;16232;48.800;9.002;2023-07-08T06:47:20;6.07;;;4.77;;
92;SDS011;16232;48.800;9.002;2023-07-08T06:49:48;6.87;;;4.70;;
92;SDS011;16232;48.800;9.002;2023-07-08T06:52:15;6.17;;;4.50;;
92;SDS011;16232;48.800;9.002;2023-07-08T06:54:43;5.80;;;4.73;;
92;SDS011;16232;48.800;9.002;2023-07-08T06:57:10;5.13;;;4.40;;
92;SDS011;16232;48.800;9.002;2023-07-08T06:59:38;4.93;;;3.97;;
92;SDS011;16232;48.800;9.002;2023-07-08T07:02:05;6.07;;;4.00;;
92;SDS011;16232;48.800;9.002;2023-07-08T07:04:34;6.63;;;4.53;;
92;SDS011;16232;48.800;9.002;2023-07-08T07:07:01;6.17;;;4.20;;
92;SDS011;16232;48.800;9.002;2023-07-08T07:09:29;5.37;;;3.73;;
92;SDS011;16232;48.800;9.002;2023-07-08T07:11:56;4.80;;;3.33;;
92;SDS011;16232;48.800;9.002;2023-07-08T07:14:24;4.20;;;3.50;;
92;SDS011;16232;48.800;9.002;2023-07-08T07:16:51;5.10;;;3.47;;
92;SDS011;16232;48.800;9.002;2023-07-08T07:19:19;5.00;;;3.60;;
92;SDS011;16232;48.800;9.002;2023-07-08T07:21:48;4.77;;;3.50;;
92;SDS011;16232;48.800;9.002;2023-07-08T07:24:15;4.77;;;3.57;;
92;SDS011;16232;48.800;9.002;2023-07-08T07:26:43;7.47;;;3.33;;
92;SDS011;16232;48.800;9.002;2023-07-08T07:29:10;3.80;;;3.17;;
92;SDS011;16232;48.800;9.002;2023-07-08T07:31:38;5.60;;;3.37;;
92;SDS011;16232;48.800;9.002;2023-07-08T07:34:06;3.67;;;3.17;;
92;SDS011;16232;48.800;9.002;2023-07-08T07:36:34;3.93;;;3.10;;
92;SDS011;16232;48.800;9.002;2023-07-08T07:39:02;6.63;;;3.50;;
92;SDS011;16232;48.800;9.002;2023-07-08T07:41:30;3.57;;;2.73;;
92;SDS011;16232;48.800;9.002;2023-07-08T07:43:57;5.20;;;3.77;;
92;SDS011;16232;48.800;9.002;2023-07-08T07:46:25;4.47;;;3.07;;
92;SDS011;16232;48.800;9.002;2023-07-08T07:48:52;3.50;;;3.20;;
92;SDS011;16232;48.800;9.002;2023-07-08T07:51:20;3.27;;;2.90;;
92;SDS011;16232;48.800;9.002;2023-07-08T07:53:47;5.33;;;2.83;;
92;SDS011;16232;48.800;9.002;2023-07-08T07:56:16;4.17;;;3.13;;
92;SDS011;16232;48.800;9.002;2023-07-08T07:58:43;4.97;;;2.90;;
92;SDS011;16232;48.800;9.002;2023-07-08T08:01:11;6.57;;;2.67;;
92;SDS011;16232;48.800;9.002;2023-07-08T08:03:39;4.40;;;2.73;;
92;SDS011;16232;48.800;9.002;2023-07-08T08:06:06;2.93;;;2.63;;
92;SDS011;16232;48.800;9.002;2023-07-08T08:08:34;4.00;;;2.70;;
92;SDS011;16232;48.800;9.002;2023-07-08T08:11:01;4.17;;;2.87;;
92;SDS011;16232;48.800;9.002;2023-07-08T08:13:30;3.73;;;2.63;;
92;SDS011;16232;48.800;9.002;2023-07-08T08:16:00;3.60;;;2.67;;
92;SDS011;16232;48.800;9.002;2023-07-08T08:18:27;3.10;;;2.27;;
92;SDS011;16232;48.800;9.002;2023-07-08T08:20:55;4.57;;;2.70;;
92;SDS011;16232;48.800;9.002;2023-07-08T08:23:22;4.37;;;2.60;;
92;SDS011;16232;48.800;9.002;2023-07-08T08:25:50;3.08;;;2.75;;
92;SDS011;16232;48.800;9.002;2023-07-08T08:28:17;3.03;;;2.72;;
92;SDS011;16232;48.800;9.002;2023-07-08T08:30:48;5.68;;;2.83;;
92;SDS011;16232;48.800;9.002;2023-07-08T08:33:15;4.25;;;3.00;;
92;SDS011;16232;48.800;9.002;2023-07-08T08:35:43;4.75;;;2.53;;
92;SDS011;16232;48.800;9.002;2023-07-08T08:38:11;3.38;;;2.45;;
92;SDS011;16232;48.800;9.002;2023-07-08T08:40:38;2.72;;;2.22;;
92;SDS011;16232;48.800;9.002;2023-07-08T08:43:06;4.10;;;2.50;;
92;SDS011;16232;48.800;9.002;2023-07-08T08:45:47;4.20;;;2.45;;
92;SDS011;16232;48.800;9.002;2023-07-08T08:48:18;4.53;;;2.53;;
92;SDS011;16232;48.800;9.002;2023-07-08T08:50:48;5.18;;;2.38;;
92;SDS011;16232;48.800;9.002;2023-07-08T08:53:17;2.55;;;1.77;;
92;SDS011;16232;48.800;9.002;2023-07-08T08:55:45;3.40;;;1.85;;
92;SDS011;16232;48.800;9.002;2023-07-08T08:58:17;2.90;;;1.92;;
92;SDS011;16232;48.800;9.002;2023-07-08T09:00:51;4.35;;;2.28;;
92;SDS011;16232;48.800;9.002;2023-07-08T09:03:24;7.13;;;2.88;;
92;SDS011;16232;48.800;9.002;2023-07-08T09:05:56;4.57;;;2.17;;
92;SDS011;16232;48.800;9.002;2023-07-08T09:08:27;3.60;;;1.75;;
92;SDS011;16232;48.800;9.002;2023-07-08T09:10:57;2.08;;;1.83;;
92;SDS011;16232;48.800;9.002;2023-07-08T09:13:26;3.20;;;2.10;;
92;SDS011;16232;48.800;9.002;2023-07-08T09:15:57;2.70;;;1.52;;
92;SDS011;16232;48.800;9.002;2023-07-08T09:18:27;2.85;;;1.95;;
92;SDS011;16232;48.800;9.002;2023-07-08T09:20:57;2.80;;;2.20;;
92;SDS011;16232;48.800;9.002;2023-07-08T09:23:26;2.80;;;2.05;;
92;SDS011;16232;48.800;9.002;2023-07-08T09:25:57;2.70;;;1.80;;
92;SDS011;16232;48.800;9.002;2023-07-08T09:28:35;3.15;;;2.10;;
92;SDS011;16232;48.800;9.002;2023-07-08T09:31:03;2.33;;;2.08;;
92;SDS011;16232;48.800;9.002;2023-07-08T09:33:34;3.35;;;1.85;;
92;SDS011;16232;48.800;9.002;2023-07-08T09:36:01;2.30;;;2.10;;
92;SDS011;16232;48.800;9.002;2023-07-08T09:38:29;1.92;;;1.80;;
92;SDS011;16232;48.800;9.002;2023-07-08T09:41:00;3.25;;;2.30;;
92;SDS011;16232;48.800;9.002;2023-07-08T09:43:33;3.33;;;1.95;;
92;SDS011;16232;48.800;9.002;2023-07-08T09:46:01;2.38;;;1.90;;
92;SDS011;16232;48.800;9.002;2023-07-08T09:48:29;3.17;;;2.35;;
92;SDS011;16232;48.800;9.002;2023-07-08T09:50:58;3.30;;;2.08;;
92;SDS011;16232;48.800;9.002;2023-07-08T09:53:26;3.78;;;2.25;;
92;SDS011;16232;48.800;9.002;2023-07-08T09:55:54;2.70;;;2.15;;
92;SDS011;16232;48.800;9.002;2023-07-08T09:58:24;4.65;;;2.80;;
92;SDS011;16232;48.800;9.002;2023-07-08T10:00:53;4.22;;;2.67;;
92;SDS011;16232;48.800;9.002;2023-07-08T10:03:22;2.90;;;2.40;;
92;SDS011;16232;48.800;9.002;2023-07-08T10:05:51;3.58;;;2.80;;
92;SDS011;16232;48.800;9.002;2023-07-08T10:08:24;2.88;;;2.42;;
92;SDS011;16232;48.800;9.002;2023-07-08T10:10:53;2.33;;;2.13;;
92;SDS011;16232;48.800;9.002;2023-07-08T10:13:23;3.42;;;2.72;;
92;SDS011;16232;48.800;9.002;2023-07-08T10:15:52;3.45;;;2.58;;
92;SDS011;16232;48.800;9.002;2023-07-08T10:18:22;3.75;;;2.40;;
92;SDS011;16232;48.800;9.002;2023-07-08T10:20:53;2.95;;;2.13;;
92;SDS011;16232;48.800;9.002;2023-07-08T10:23:26;2.70;;;2.33;;
92;SDS011;16232;48.800;9.002;2023-07-08T10:25:56;2.47;;;2.15;;
92;SDS011;16232;48.800;9.002;2023-07-08T10:28:28;7.47;;;2.17;;
92;SDS011;16232;48.800;9.002;2023-07-08T10:31:01;3.17;;;2.10;;
92;SDS011;16232;48.800;9.002;2023-07-08T10:33:36;2.55;;;1.95;;
92;SDS011;16232;48.800;9.002;2023-07-08T10:36:09;3.50;;;2.00;;
92;SDS011;16232;48.800;9.002;2023-07-08T10:38:45;2.78;;;1.73;;
92;SDS011;16232;48.800;9.002;2023-07-08T10:41:17;3.47;;;2.33;;
92;SDS011;16232;48.800;9.002;2023-07-08T10:43:53;2.78;;;1.73;;
92;SDS011;16232;48.800;9.002;2023-07-08T10:46:25;2.35;;;1.98;;
92;SDS011;16232;48.800;9.002;2023-07-08T10:49:07;2.25;;;2.03;;
92;SDS011;16232;48.800;9.002;2023-07-08T10:51:38;2.83;;;1.98;;
92;SDS011;16232;48.800;9.002;2023-07-08T10:54:20;2.72;;;1.85;;
92;SDS011;16232;48.800;9.002;2023-07-08T10:56:53;2.55;;;2.28;;
92;SDS011;16232;48.800;9.002;2023-07-08T10:59:24;4.72;;;2.88;;
92;SDS011;16232;48.800;9.002;2023-07-08T11:02:01;2.35;;;2.03;;
92;SDS011;16232;48.800;9.002;2023-07-08T11:04:33;4.53;;;2.40;;
92;SDS011;16232;48.800;9.002;2023-07-08T11:07:04;2.85;;;2.33;;
92;SDS011;16232;48.800;9.002;2023-07-08T11:09:38;3.45;;;2.30;;
92;SDS011;16232;48.800;9.002;2023-07-08T11:12:09;3.05;;;2.30;;
92;SDS011;16232;48.800;9.002;2023-07-08T11:14:42;2.50;;;2.28;;
92;SDS011;16232;48.800;9.002;2023-07-08T11:17:15;2.95;;;2.10;;
92;SDS011;16232;48.800;9.002;2023-07-08T11:19:45;2.55;;;2.28;;
92;SDS011;16232;48.800;9.002;2023-07-08T11:22:15;3.08;;;2.47;;
92;SDS011;16232;48.800;9.002;2023-07-08T11:24:45;2.92;;;2.25;;
92;SDS011;16232;48.800;9.002;2023-07-08T11:27:15;2.80;;;2.00;;
92;SDS011;16232;48.800;9.002;2023-07-08T11:29:45;2.53;;;1.80;;
92;SDS011;16232;48.800;9.002;2023-07-08T11:32:14;3.17;;;2.05;;
92;SDS011;16232;48.800;9.002;2023-07-08T11:34:43;1.88;;;1.65;;
92;SDS011;16232;48.800;9.002;2023-07-08T11:37:12;2.00;;;1.48;;
92;SDS011;16232;48.800;9.002;2023-07-08T11:39:41;5.57;;;2.47;;
92;SDS011;16232;48.800;9.002;2023-07-08T11:42:16;3.03;;;2.40;;
92;SDS011;16232;48.800;9.002;2023-07-08T11:44:44;3.78;;;2.40;;
92;SDS011;16232;48.800;9.002;2023-07-08T11:47:18;3.95;;;2.58;;
92;SDS011;16232;48.800;9.002;2023-07-08T11:49:46;2.55;;;2.17;;
92;SDS011;16232;48.800;9.002;2023-07-08T11:52:16;4.15;;;2.70;;
92;SDS011;16232;48.800;9.002;2023-07-08T11:54:45;2.92;;;2.30;;
92;SDS011;16232;48.800;9.002;2023-07-08T11:57:18;2.92;;;2.38;;
92;SDS011;16232;48.800;9.002;2023-07-08T11:59:45;2.50;;;2.30;;
92;SDS011;16232;48.800;9.002;2023-07-08T12:02:14;2.53;;;2.05;;
92;SDS011;16232;48.800;9.002;2023-07-08T12:07:31;2.10;;;1.90;;
92;SDS011;16232;48.800;9.002;2023-07-08T12:09:59;3.92;;;2.10;;
92;SDS011;16232;48.800;9.002;2023-07-08T12:12:32;5.15;;;2.47;;
92;SDS011;16232;48.800;9.002;2023-07-08T12:15:10;2.40;;;2.17;;
92;SDS011;16232;48.800;9.002;2023-07-08T12:17:39;3.00;;;1.95;;
92;SDS011;16232;48.800;9.002;2023-07-08T12:20:07;2.83;;;2.08;;
92;SDS011;16232;48.800;9.002;2023-07-08T12:22:39;3.25;;;2.28;;
92;SDS011;16232;48.800;9.002;2023-07-08T12:25:08;1.90;;;1.80;;
92;SDS011;16232;48.800;9.002;2023-07-08T12:27:41;4.03;;;2.30;;
92;SDS011;16232;48.800;9.002;2023-07-08T12:30:09;2.97;;;2.30;;
92;SDS011;16232;48.800;9.002;2023-07-08T12:32:37;3.35;;;2.30;;
92;SDS011;16232;48.800;9.002;2023-07-08T12:35:04;2.95;;;2.05;;
92;SDS011;16232;48.800;9.002;2023-07-08T12:37:33;2.50;;;2.22;;
92;SDS011;16232;48.800;9.002;2023-07-08T12:40:00;2.40;;;2.20;;
92;SDS011;16232;48.800;9.002;2023-07-08T12:42:31;2.20;;;2.00;;
92;SDS011;16232;48.800;9.002;2023-07-08T12:45:00;2.67;;;2.25;;
92;SDS011;16232;48.800;9.002;2023-07-08T12:47:27;4.45;;;2.75;;
92;SDS011;16232;48.800;9.002;2023-07-08T12:49:55;5.68;;;1.77;;
92;SDS011;16232;48.800;9.002;2023-07-08T12:52:22;3.25;;;2.50;;
92;SDS011;16232;48.800;9.002;2023-07-08T12:54:50;5.60;;;3.33;;
92;SDS011;16232;48.800;9.002;2023-07-08T12:57:17;2.92;;;2.55;;
92;SDS011;16232;48.800;9.002;2023-07-08T12:59:45;3.55;;;2.50;;
92;SDS011;16232;48.800;9.002;2023-07-08T13:02:15;3.92;;;2.80;;
92;SDS011;16232;48.800;9.002;2023-07-08T13:04:44;2.88;;;2.40;;
92;SDS011;16232;48.800;9.002;2023-07-08T13:07:15;4.90;;;2.40;;
92;SDS011;16232;48.800;9.002;2023-07-08T13:09:47;4.10;;;2.30;;
92;SDS011;16232;48.800;9.002;2023-07-08T13:12:16;3.33;;;3.00;;
92;SDS011;16232;48.800;9.002;2023-07-08T13:14:47;3.95;;;2.70;;
92;SDS011;16232;48.800;9.002;2023-07-08T13:17:16;3.25;;;2.50;;
92;SDS011;16232;48.800;9.002;2023-07-08T13:19:44;2.50;;;2.22;;
92;SDS011;16232;48.800;9.002;2023-07-08T13:22:12;3.40;;;2.47;;
92;SDS011;16232;48.800;9.002;2023-07-08T13:24:40;3.22;;;2.60;;
92;SDS011;16232;48.800;9.002;2023-07-08T13:27:12;2.47;;;2.28;;
92;SDS011;16232;48.800;9.002;2023-07-08T13:29:40;3.95;;;2.50;;
92;SDS011;16232;48.800;9.002;2023-07-08T13:32:09;3.15;;;2.33;;
92;SDS011;16232;48.800;9.002;2023-07-08T13:34:38;2.95;;;2.35;;
92;SDS011;16232;48.800;9.002;2023-07-08T13:37:09;2.92;;;1.88;;
92;SDS011;16232;48.800;9.002;2023-07-08T13:39:37;5.60;;;2.40;;
92;SDS011;16232;48.800;9.002;2023-07-08T13:42:06;3.20;;;1.88;;
92;SDS011;16232;48.800;9.002;2023-07-08T13:44:33;3.47;;;2.38;;
92;SDS011;16232;48.800;9.002;2023-07-08T13:47:01;2.33;;;2.03;;
92;SDS011;16232;48.800;9.002;2023-07-08T13:49:38;2.95;;;2.35;;
92;SDS011;16232;48.800;9.002;2023-07-08T13:52:08;2.50;;;2.25;;
92;SDS011;16232;48.800;9.002;2023-07-08T13:54:44;3.08;;;2.28;;
92;SDS011;16232;48.800;9.002;2023-07-08T13:57:12;3.13;;;2.83;;
92;SDS011;16232;48.800;9.002;2023-07-08T13:59:43;3.53;;;2.80;;
92;SDS011;16232;48.800;9.002;2023-07-08T14:02:13;3.25;;;2.20;;
92;SDS011;16232;48.800;9.002;2023-07-08T14:04:41;3.15;;;2.35;;
92;SDS011;16232;48.800;9.002;2023-07-08T14:07:11;3.97;;;2.60;;
92;SDS011;16232;48.800;9.002;2023-07-08T14:09:40;2.87;;;2.50;;
92;SDS011;16232;48.800;9.002;2023-07-08T14:12:08;4.80;;;2.40;;
92;SDS011;16232;48.800;9.002;2023-07-08T14:14:35;3.60;;;2.60;;
92;SDS011;16232;48.800;9.002;2023-07-08T14:17:03;4.23;;;2.60;;
92;SDS011;16232;48.800;9.002;2023-07-08T14:19:32;5.23;;;2.60;;
92;SDS011;16232;48.800;9.002;2023-07-08T14:22:01;3.50;;;2.67;;
92;SDS011;16232;48.800;9.002;2023-07-08T14:24:30;5.93;;;2.50;;
92;SDS011;16232;48.800;9.002;2023-07-08T14:26:57;3.93;;;2.57;;
92;SDS011;16232;48.800;9.002;2023-07-08T14:29:25;3.20;;;2.70;;
92;SDS011;16232;48.800;9.002;2023-07-08T14:31:52;4.30;;;2.40;;
92;SDS011;16232;48.800;9.002;2023-07-08T14:34:21;3.53;;;2.40;;
92;SDS011;16232;48.800;9.002;2023-07-08T14:36:49;5.60;;;2.50;;
92;SDS011;16232;48.800;9.002;2023-07-08T14:39:17;4.43;;;2.80;;
92;SDS011;16232;48.800;9.002;2023-07-08T14:41:46;2.57;;;2.37;;
92;SDS011;16232;48.800;9.002;2023-07-08T14:44:18;4.77;;;2.30;;
92;SDS011;16232;48.800;9.002;2023-07-08T14:46:46;2.90;;;2.50;;
92;SDS011;16232;48.800;9.002;2023-07-08T14:49:15;2.57;;;2.20;;
92;SDS011;16232;48.800;9.002;2023-07-08T14:51:43;2.73;;;2.23;;
92;SDS011;16232;48.800;9.002;2023-07-08T14:54:11;3.43;;;2.20;;
92;SDS011;16232;48.800;9.002;2023-07-08T14:56:38;3.30;;;2.20;;
92;SDS011;16232;48.800;9.002;2023-07-08T14:59:09;3.83;;;2.30;;
92;SDS011;16232;48.800;9.002;2023-07-08T15:01:39;4.17;;;2.57;;
92;SDS011;16232;48.800;9.002;2023-07-08T15:04:08;3.03;;;2.20;;
92;SDS011;16232;48.800;9.002;2023-07-08T15:06:36;3.23;;;2.20;;
92;SDS011;16232;48.800;9.002;2023-07-08T15:09:04;4.00;;;2.70;;
92;SDS011;16232;48.800;9.002;2023-07-08T15:11:41;4.53;;;2.60;;
92;SDS011;16232;48.800;9.002;2023-07-08T15:14:12;2.20;;;2.00;;
92;SDS011;16232;48.800;9.002;2023-07-08T15:16:59;2.93;;;2.23;;
92;SDS011;16232;48.800;9.002;2023-07-08T15:19:40;3.30;;;2.43;;
92;SDS011;16232;48.800;9.002;2023-07-08T15:22:23;2.53;;;2.33;;
92;SDS011;16232;48.800;9.002;2023-07-08T15:25:03;4.83;;;2.23;;
92;SDS011;16232;48.800;9.002;2023-07-08T15:27:47;4.40;;;2.10;;
92;SDS011;16232;48.800;9.002;2023-07-08T15:31:04;5.83;;;2.63;;
92;SDS011;16232;48.800;9.002;2023-07-08T15:33:38;3.23;;;2.33;;
92;SDS011;16232;48.800;9.002;2023-07-08T15:36:11;5.93;;;2.50;;
92;SDS011;16232;48.800;9.002;2023-07-08T15:38:59;4.50;;;2.20;;
92;SDS011;16232;48.800;9.002;2023-07-08T15:41:32;3.40;;;2.40;;
92;SDS011;16232;48.800;9.002;2023-07-08T15:44:04;2.33;;;2.13;;
92;SDS011;16232;48.800;9.002;2023-07-08T15:46:41;3.20;;;2.00;;